Moneymore, United Kingdom
Current Conditions -  °F | °C
As of 8:20 PM on Wednesday 26 Nov 2014 (Local Time) from EGAA Reporting Station
Light Fog Light Fog  
Wind Chill:   Ceiling: 4600
Heat Index:   Visibility: 3mi
Dew Point:   Wind: 0mph
Humidity: 100%   Direction: NA
Pressure: 29.8"   Gusts: NA
Location:  54.69°N, 6.67°W
Report Text: EGAA 262020Z 00000KT 5000 MIFG SCT030 BKN046 05/05 Q1009
Loading
Personal Weather Stations






























Interactive Weather Map New forecast layout! Learn more

10-Day Weather Forecast

Advertisements
Track Severe Weather on mobile